Pagrindinis puslapis
METAR-TAF:

METAR-TAF

Oro uostai :

Brianskas, Rusija

platuma: 53-15N, ilguma: 034-19E, Aukštis: 217 m

Dabartinis oras

Ataskaita buvo paskelbta 9 valandos ir 56 minutes, ne 15:00 UTC
Vėjas 2 kt nuo kintamojo kryptimis
Temperatūra 27°C
Drėgmė 37%
Slėgis 1019 hPa
Matomumas 10 km arba daugiau
Mažai debesys ne aukštis 3000 ft

METAR: UUBP 051500Z VRB01MPS 9999 FEW030 27/11 Q1019 R34/CLRD70 NOSIG RMK QFE747/0996

Laikas: 03:56 (00:56 UTC)

Prognozė

Ataskaita buvo paskelbta 11 valandos ir 8 minutes, ne 13:48 UTC
Prognozė galioja nuo 05 metu 15 UTC su 05 metu 24 UTC
Vėjas 6 kt iš Pietų/Pietvakarių
Matomumas 10 km arba daugiau
Išsisklaidę debesys ne aukštis 3000 ft

TAF: UUBP 051348Z 0515/0524 20003MPS 9999 SCT030

Orai ataskaitas ir orų prognozės (METAR, TAF).

turimą stotys yra geltonos ir raudonos taškus žemėlapyje.

Perkelti pele per norėdami pamatyti stoties vardą.

Tada spustelėkite, norėdami matyti oro stebėjimo ir prognozės.

Norėdami pakeisti žemėlapį: spustelėkite ant žalios mygtukų su juodo kryžiaus žemyn,; žalią mygtuką su brūkšneliu, jei norite nutolinti; arba žalių rodyklių gretimoms žemėlapius.


METAR-TAF: